Time,TemperatureF,DewpointF,PressureIn,WindDirection,WindDirectionDegrees,WindSpeedMPH,WindSpeedGustMPH,Humidity,HourlyPrecipIn,Conditions,Clouds,dailyrainin,SoftwareType,DateUTC
2013-10-10 00:02:00,52.0,44.0,29.44,WNW,284,0.0,4.0,74,0.00,,,-99.99,,2013-10-10 07:02:00,
2013-10-10 00:11:00,52.0,44.0,29.44,WNW,284,0.0,4.0,74,0.00,,,-99.99,,2013-10-10 07:11:00,
2013-10-10 00:21:00,52.0,44.0,29.44,WNW,284,0.0,4.0,74,0.00,,,-99.99,,2013-10-10 07:21:00,
2013-10-10 00:52:00,50.0,43.0,29.44,North,11,0.0,2.0,78,0.00,,,-99.99,,2013-10-10 07:52:00,
2013-10-10 01:02:00,50.0,43.0,29.44,North,11,0.0,2.0,78,0.00,,,-99.99,,2013-10-10 08:02:00,
2013-10-10 01:11:00,50.0,43.0,29.44,North,11,0.0,2.0,78,0.00,,,-99.99,,2013-10-10 08:11:00,
2013-10-10 01:22:00,49.0,43.0,29.45,North,11,0.0,2.0,79,0.00,,,-99.99,,2013-10-10 08:22:00,
2013-10-10 01:32:00,49.0,43.0,29.45,North,11,0.0,2.0,79,0.00,,,-99.99,,2013-10-10 08:32:00,
2013-10-10 01:42:00,49.0,43.0,29.45,North,11,0.0,2.0,79,0.00,,,-99.99,,2013-10-10 08:42:00,
2013-10-10 01:52:00,49.0,43.0,29.46,North,11,0.0,2.0,80,0.00,,,-99.99,,2013-10-10 08:52:00,
2013-10-10 02:02:00,49.0,43.0,29.46,North,11,0.0,2.0,80,0.00,,,-99.99,,2013-10-10 09:02:00,
2013-10-10 02:21:00,48.0,42.0,29.46,North,11,0.0,2.0,81,0.00,,,-99.99,,2013-10-10 09:21:00,
2013-10-10 02:33:00,48.0,42.0,29.46,North,11,0.0,2.0,81,0.00,,,-99.99,,2013-10-10 09:33:00,
2013-10-10 02:43:00,48.0,42.0,29.46,North,11,0.0,2.0,81,0.00,,,-99.99,,2013-10-10 09:43:00,
2013-10-10 02:53:00,49.0,43.0,29.47,North,11,0.0,3.0,81,0.00,,,-99.99,,2013-10-10 09:53:00,
2013-10-10 03:03:00,49.0,43.0,29.47,North,11,0.0,3.0,81,0.00,,,-99.99,,2013-10-10 10:03:00,
2013-10-10 03:23:00,48.0,42.0,29.48,North,11,0.0,2.0,81,0.00,,,-99.99,,2013-10-10 10:23:00,
2013-10-10 03:32:00,48.0,42.0,29.48,North,11,0.0,2.0,81,0.00,,,-99.99,,2013-10-10 10:32:00,
2013-10-10 03:42:00,48.0,42.0,29.48,North,11,0.0,2.0,81,0.00,,,-99.99,,2013-10-10 10:42:00,
2013-10-10 03:53:00,47.0,42.0,29.49,North,11,0.0,2.0,82,0.00,,,-99.99,,2013-10-10 10:53:00,
2013-10-10 04:02:00,47.0,42.0,29.49,North,11,0.0,2.0,82,0.00,,,-99.99,,2013-10-10 11:02:00,
2013-10-10 04:12:00,47.0,42.0,29.49,North,11,0.0,2.0,82,0.00,,,-99.99,,2013-10-10 11:12:00,
2013-10-10 04:21:00,47.0,42.0,29.49,North,11,0.0,2.0,82,0.00,,,-99.99,,2013-10-10 11:21:00,
2013-10-10 06:42:00,47.0,42.0,29.53,ENE,69,1.0,4.0,82,0.00,,,-99.99,,2013-10-10 13:42:00,
2013-10-10 06:52:00,47.0,42.0,29.53,ENE,69,1.0,4.0,82,0.00,,,-99.99,,2013-10-10 13:52:00,
2013-10-10 07:11:00,47.0,42.0,29.55,ENE,68,1.0,5.0,82,0.00,,,-99.99,,2013-10-10 14:11:00,
2013-10-10 07:21:00,47.0,42.0,29.55,ENE,68,1.0,5.0,82,0.00,,,-99.99,,2013-10-10 14:21:00,
2013-10-10 07:40:00,48.0,42.0,29.57,NNE,33,0.0,4.0,81,0.00,,,-99.99,,2013-10-10 14:40:00,
2013-10-10 07:42:00,48.0,42.0,29.56,NNE,33,0.0,1.0,81,0.00,,,-99.99,,2013-10-10 14:42:00,
2013-10-10 07:52:00,48.0,42.0,29.56,NNE,33,0.0,1.0,81,0.00,,,-99.99,,2013-10-10 14:52:00,
2013-10-10 08:11:00,48.0,42.0,29.57,NNE,33,0.0,4.0,81,0.00,,,-99.99,,2013-10-10 15:11:00,
2013-10-10 08:22:00,48.0,42.0,29.57,NNE,33,0.0,4.0,81,0.00,,,-99.99,,2013-10-10 15:22:00,
2013-10-10 08:33:00,48.0,42.0,29.57,NNE,33,0.0,4.0,81,0.00,,,-99.99,,2013-10-10 15:33:00,
2013-10-10 09:42:00,55.0,45.0,29.61,NE,48,3.0,7.0,69,0.00,,,-99.99,,2013-10-10 16:42:00,
2013-10-10 09:53:00,55.0,45.0,29.61,NE,48,3.0,7.0,69,0.00,,,-99.99,,2013-10-10 16:53:00,
2013-10-10 10:10:00,62.0,48.0,29.63,ENE,58,0.0,3.0,61,0.00,,,-99.99,,2013-10-10 17:10:00,
2013-10-10 10:12:00,58.0,46.0,29.63,North,5,1.0,4.0,64,0.00,,,-99.99,,2013-10-10 17:12:00,
2013-10-10 10:23:00,58.0,46.0,29.63,North,5,1.0,4.0,64,0.00,,,-99.99,,2013-10-10 17:23:00,
2013-10-10 10:42:00,62.0,48.0,29.63,ENE,58,0.0,3.0,61,0.00,,,-99.99,,2013-10-10 17:42:00,
2013-10-10 10:52:00,62.0,48.0,29.63,ENE,58,0.0,3.0,61,0.00,,,-99.99,,2013-10-10 17:52:00,
2013-10-10 11:02:00,62.0,48.0,29.63,ENE,58,0.0,3.0,61,0.00,,,-99.99,,2013-10-10 18:02:00,
2013-10-10 12:10:00,66.0,47.0,29.63,SW,232,2.0,6.0,51,0.00,,,-99.99,,2013-10-10 19:10:00,
2013-10-10 12:42:00,66.0,47.0,29.63,SW,232,2.0,6.0,51,0.00,,,-99.99,,2013-10-10 19:42:00,
2013-10-10 12:53:00,66.0,47.0,29.63,SW,232,2.0,6.0,51,0.00,,,-99.99,,2013-10-10 19:53:00,
2013-10-10 13:02:00,66.0,47.0,29.63,SW,232,2.0,6.0,51,0.00,,,-99.99,,2013-10-10 20:02:00,
2013-10-10 13:40:00,66.0,48.0,29.62,WSW,254,3.0,11.0,53,0.00,,,-99.99,,2013-10-10 20:40:00,
2013-10-10 13:42:00,66.0,47.0,29.63,WNW,283,2.0,9.0,50,0.00,,,-99.99,,2013-10-10 20:42:00,
2013-10-10 13:52:00,66.0,47.0,29.63,WNW,283,2.0,9.0,50,0.00,,,-99.99,,2013-10-10 20:52:00,
2013-10-10 14:11:00,66.0,48.0,29.62,WSW,254,3.0,11.0,53,0.00,,,-99.99,,2013-10-10 21:11:00,
2013-10-10 14:21:00,66.0,48.0,29.62,WSW,254,3.0,11.0,53,0.00,,,-99.99,,2013-10-10 21:21:00,
2013-10-10 14:34:00,66.0,48.0,29.62,WSW,254,3.0,11.0,53,0.00,,,-99.99,,2013-10-10 21:34:00,
2013-10-10 15:40:00,68.0,48.0,29.63,WSW,253,1.0,6.0,48,0.00,,,-99.99,,2013-10-10 22:40:00,
2013-10-10 15:43:00,68.0,47.0,29.62,West,275,1.0,7.0,47,0.00,,,-99.99,,2013-10-10 22:43:00,
2013-10-10 15:53:00,68.0,47.0,29.62,West,275,1.0,7.0,47,0.00,,,-99.99,,2013-10-10 22:53:00,
2013-10-10 16:12:00,68.0,48.0,29.63,WSW,253,1.0,6.0,48,0.00,,,-99.99,,2013-10-10 23:12:00,
2013-10-10 16:23:00,68.0,48.0,29.63,WSW,253,1.0,6.0,48,0.00,,,-99.99,,2013-10-10 23:23:00,
2013-10-10 16:33:00,68.0,48.0,29.63,WSW,253,1.0,6.0,48,0.00,,,-99.99,,2013-10-10 23:33:00,
2013-10-10 16:40:00,66.0,48.0,29.63,West,281,1.0,6.0,52,0.00,,,-99.99,,2013-10-10 23:40:00,
2013-10-10 17:11:00,66.0,48.0,29.63,West,281,1.0,6.0,52,0.00,,,-99.99,,2013-10-11 00:11:00,
2013-10-10 17:21:00,66.0,48.0,29.63,West,281,1.0,6.0,52,0.00,,,-99.99,,2013-10-11 00:21:00,
2013-10-10 17:32:00,66.0,48.0,29.63,West,281,1.0,6.0,52,0.00,,,-99.99,,2013-10-11 00:32:00,
2013-10-10 17:40:00,64.0,49.0,29.63,South,190,0.0,4.0,58,0.00,,,-99.99,,2013-10-11 00:40:00,
2013-10-10 18:11:00,64.0,49.0,29.63,South,190,0.0,4.0,58,0.00,,,-99.99,,2013-10-11 01:11:00,
2013-10-10 18:21:00,64.0,49.0,29.63,South,190,0.0,4.0,58,0.00,,,-99.99,,2013-10-11 01:21:00,
2013-10-10 18:32:00,64.0,49.0,29.63,South,190,0.0,4.0,58,0.00,,,-99.99,,2013-10-11 01:32:00,
2013-10-10 20:11:00,59.0,49.0,29.64,NW,320,0.0,0.0,70,0.00,,,-99.99,,2013-10-11 03:11:00,
2013-10-10 20:23:00,59.0,49.0,29.64,NW,320,0.0,0.0,70,0.00,,,-99.99,,2013-10-11 03:23:00,
2013-10-10 20:40:00,58.0,49.0,29.66,NW,320,0.0,0.0,72,0.00,,,-99.99,,2013-10-11 03:40:00,
2013-10-10 20:44:00,59.0,50.0,29.65,NW,320,0.0,0.0,71,0.00,,,-99.99,,2013-10-11 03:44:00,
2013-10-10 20:54:00,59.0,50.0,29.65,NW,320,0.0,0.0,71,0.00,,,-99.99,,2013-10-11 03:54:00,
2013-10-10 21:13:00,58.0,49.0,29.66,NW,320,0.0,0.0,72,0.00,,,-99.99,,2013-10-11 04:13:00,
2013-10-10 21:24:00,58.0,49.0,29.66,NW,320,0.0,0.0,72,0.00,,,-99.99,,2013-10-11 04:24:00,
2013-10-10 21:34:00,58.0,49.0,29.66,NW,320,0.0,0.0,72,0.00,,,-99.99,,2013-10-11 04:34:00,
2013-10-10 21:40:00,56.0,48.0,29.67,NNW,336,0.0,2.0,75,0.00,,,-99.99,,2013-10-11 04:40:00,
2013-10-10 22:13:00,56.0,48.0,29.67,NNW,336,0.0,2.0,75,0.00,,,-99.99,,2013-10-11 05:13:00,
2013-10-10 22:23:00,56.0,48.0,29.67,NNW,336,0.0,2.0,75,0.00,,,-99.99,,2013-10-11 05:23:00,
2013-10-10 22:34:00,56.0,48.0,29.67,NNW,336,0.0,2.0,75,0.00,,,-99.99,,2013-10-11 05:34:00,
2013-10-10 23:12:00,55.0,48.0,29.67,NNE,22,0.0,3.0,76,0.00,,,-99.99,,2013-10-11 06:12:00,
2013-10-10 23:22:00,55.0,48.0,29.67,NNE,22,0.0,3.0,76,0.00,,,-99.99,,2013-10-11 06:22:00,
2013-10-10 23:42:00,54.0,47.0,29.67,NNE,22,0.0,2.0,77,0.00,,,-99.99,,2013-10-11 06:42:00,
2013-10-10 23:52:00,54.0,47.0,29.67,NNE,22,0.0,2.0,77,0.00,,,-99.99,,2013-10-11 06:52:00,